General Aviation Weather

Text Reports

Enter one or more of the following location identifiers separated by a space:

Zip Code, Four-Character ICAO or Three-Character IATA airport codes.

METAR - Aviation Routine Weather Report
KY50 - Wautoma, Wisconsin
Updated at 9:56 PM GMT on December 25, 2014 (3:56 PM CST):
METAR KY50 252156Z AUTO 00000KT 10SM BKN095 03/M01 A2986 RMK AO2 TSNO T00331005 SLP117
TAF - Terminal Area Forecast
KY50 - Wautoma, Wisconsin
Updated at 9:56 PM GMT on December 25, 2014 (3:56 PM CST):
No TAF is currently available for this location.
Decoded:
No decoded TAF is available.
PIREP - Pilot Weather Report
KY50 - Wautoma, Wisconsin
Updated at 9:56 PM GMT on December 25, 2014 (3:56 PM CST):
No PIREP is currently available for this location.
AIRMET - Airmens Meteorological Information
KY50 - Wautoma, Wisconsin
Updated at 9:56 PM GMT on December 25, 2014 (3:56 PM CST):
No AIRMET is currently available for this location.
SIGMET - Significant Meteorological Information
KY50 - Wautoma, Wisconsin
Updated at 9:56 PM GMT on December 25, 2014 (3:56 PM CST):
No SIGMET is currently available for this location.
NOTAM - Notice to Airmen
KY50 - Wautoma, Wisconsin
Updated at 9:56 PM GMT on December 25, 2014 (3:56 PM CST):
No NOTAM is currently available for this location.
Forecast Area
KY50 - Wautoma, Wisconsin
Updated at 9:56 PM GMT on December 25, 2014 (3:56 PM CST):
No NOTAM is currently available for this location.
Aviation Weather Maps